createdAt,value
2018-06-11T00:01:08.025Z,8.77
2018-06-11T00:03:36.325Z,9.23
2018-06-11T00:06:04.664Z,9.07
2018-06-11T00:08:32.984Z,9.30
2018-06-11T00:11:01.267Z,8.93
2018-06-11T00:13:29.258Z,9.80
2018-06-11T00:15:57.520Z,9.37
2018-06-11T00:18:25.835Z,9.17
2018-06-11T00:20:54.081Z,8.90
2018-06-11T00:23:22.348Z,9.47
2018-06-11T00:25:50.669Z,10.20
2018-06-11T00:28:18.968Z,9.47
2018-06-11T00:30:47.268Z,9.53
2018-06-11T00:33:15.305Z,9.73
2018-06-11T00:35:43.643Z,9.93
2018-06-11T00:38:11.928Z,11.00
2018-06-11T00:40:40.207Z,10.17
2018-06-11T00:43:08.555Z,10.97
2018-06-11T00:45:36.581Z,10.23
2018-06-11T00:48:04.942Z,11.43
2018-06-11T00:50:33.242Z,11.17
2018-06-11T00:53:01.543Z,11.07
2018-06-11T00:55:41.121Z,10.83
2018-06-11T00:58:09.401Z,11.53
2018-06-11T01:00:37.709Z,12.33
2018-06-11T01:03:06.049Z,11.97
2018-06-11T01:05:34.376Z,13.13
2018-06-11T01:08:02.671Z,12.70
2018-06-11T01:10:30.957Z,12.77
2018-06-11T01:12:58.979Z,13.20
2018-06-11T01:15:27.306Z,13.03
2018-06-11T01:17:55.343Z,13.23
2018-06-11T01:20:23.655Z,14.73
2018-06-11T01:22:51.949Z,14.07
2018-06-11T01:25:20.293Z,14.97
2018-06-11T01:27:48.622Z,14.77
2018-06-11T01:30:16.989Z,14.03
2018-06-11T01:32:45.312Z,13.63
2018-06-11T01:35:13.623Z,14.30
2018-06-11T01:37:41.961Z,14.47
2018-06-11T01:40:10.248Z,15.30
2018-06-11T01:42:38.560Z,15.50
2018-06-11T01:45:06.869Z,15.83
2018-06-11T01:47:35.191Z,14.50
2018-06-11T01:50:03.513Z,16.10
2018-06-11T01:52:31.844Z,15.70
2018-06-11T01:55:00.137Z,15.43
2018-06-11T01:57:28.435Z,15.93
2018-06-11T01:59:56.792Z,16.00
2018-06-11T02:02:24.863Z,15.57
2018-06-11T02:04:52.949Z,14.97
2018-06-11T02:07:20.986Z,16.40
2018-06-11T02:09:49.326Z,16.30
2018-06-11T02:12:17.756Z,16.80
2018-06-11T02:14:45.809Z,16.07
2018-06-11T02:17:14.170Z,15.50
2018-06-11T02:19:42.496Z,15.90
2018-06-11T02:22:10.538Z,15.53
2018-06-11T02:24:38.954Z,16.57
2018-06-11T02:27:07.312Z,15.53
2018-06-11T02:29:35.809Z,17.20
2018-06-11T02:32:03.860Z,16.03
2018-06-11T02:34:32.109Z,16.33
2018-06-11T02:37:00.495Z,16.17
2018-06-11T02:39:29.881Z,15.30
2018-06-11T02:41:58.202Z,16.23
2018-06-11T02:44:26.242Z,16.53
2018-06-11T02:46:54.602Z,16.73
2018-06-11T02:49:22.905Z,17.43
2018-06-11T02:51:51.243Z,16.93
2018-06-11T02:54:19.601Z,17.37
2018-06-11T02:56:47.960Z,17.23
2018-06-11T02:59:16.832Z,17.33
2018-06-11T03:01:44.892Z,18.20
2018-06-11T03:04:13.301Z,16.13
2018-06-11T03:06:41.568Z,15.47
2018-06-11T03:09:09.856Z,17.00
2018-06-11T03:11:38.131Z,16.17
2018-06-11T03:14:06.174Z,15.70
2018-06-11T03:16:34.453Z,16.03
2018-06-11T03:19:02.759Z,17.07
2018-06-11T03:21:30.787Z,17.63
2018-06-11T03:23:59.095Z,17.23
2018-06-11T03:26:27.376Z,17.00
2018-06-11T03:28:55.712Z,16.33
2018-06-11T03:31:24.038Z,17.37
2018-06-11T03:33:52.299Z,17.20
2018-06-11T03:36:20.580Z,16.03
2018-06-11T03:38:48.872Z,16.30
2018-06-11T03:41:17.189Z,16.03
2018-06-11T03:43:45.501Z,16.33
2018-06-11T03:46:13.801Z,15.57
2018-06-11T03:48:42.194Z,15.77
2018-06-11T03:51:10.468Z,15.37
2018-06-11T03:53:38.482Z,13.83
2018-06-11T03:56:06.787Z,15.10
2018-06-11T03:58:35.141Z,15.20
2018-06-11T04:01:04.089Z,15.77
2018-06-11T04:03:32.388Z,15.53
2018-06-11T04:06:00.715Z,15.47
2018-06-11T04:08:29.048Z,15.30
2018-06-11T04:10:57.409Z,15.30
2018-06-11T04:13:25.679Z,15.40
2018-06-11T04:15:53.928Z,15.37
2018-06-11T04:18:22.243Z,14.67
2018-06-11T04:20:50.533Z,15.40
2018-06-11T04:23:18.816Z,14.33
2018-06-11T04:25:47.085Z,15.20
2018-06-11T04:28:15.343Z,15.33
2018-06-11T04:30:43.338Z,14.27
2018-06-11T04:33:11.672Z,14.43
2018-06-11T04:35:40.016Z,14.00
2018-06-11T04:38:09.141Z,14.13
2018-06-11T04:40:37.392Z,13.83
2018-06-11T04:43:05.705Z,14.23
2018-06-11T04:45:33.749Z,13.63
2018-06-11T04:48:02.120Z,14.57
2018-06-11T04:50:30.437Z,14.30
2018-06-11T04:52:58.768Z,14.10
2018-06-11T04:55:27.175Z,15.20
2018-06-11T04:57:56.679Z,14.43
2018-06-11T05:00:26.171Z,13.77
2018-06-11T05:02:54.906Z,16.33
2018-06-11T05:05:25.287Z,15.07
2018-06-11T05:10:37.005Z,14.90
2018-06-11T05:13:07.206Z,16.00
2018-06-11T05:15:44.882Z,14.47
2018-06-11T05:18:13.235Z,14.90
2018-06-11T05:20:41.925Z,14.70
2018-06-11T05:23:10.401Z,15.73
2018-06-11T05:25:42.209Z,15.93
2018-06-11T05:28:16.080Z,15.10
2018-06-11T05:30:44.507Z,14.73
2018-06-11T05:33:12.855Z,15.53
2018-06-11T05:35:41.155Z,15.30
2018-06-11T05:38:09.471Z,15.10
2018-06-11T05:40:37.780Z,14.57
2018-06-11T05:43:08.616Z,13.40
2018-06-11T05:45:36.895Z,14.97
2018-06-11T05:48:05.258Z,13.73
2018-06-11T05:50:33.271Z,13.03
2018-06-11T05:53:01.573Z,15.20
2018-06-11T05:55:29.897Z,14.90
2018-06-11T05:57:57.935Z,14.23
2018-06-11T06:00:28.174Z,14.73
2018-06-11T06:02:56.470Z,13.67
2018-06-11T06:05:24.799Z,13.57
2018-06-11T06:07:53.112Z,14.57
2018-06-11T06:10:21.191Z,15.43
2018-06-11T06:12:49.471Z,13.90
2018-06-11T06:15:17.769Z,14.80
2018-06-11T06:17:48.447Z,15.30
2018-06-11T06:20:16.784Z,14.27
2018-06-11T06:22:45.100Z,14.43
2018-06-11T06:25:13.397Z,13.53
2018-06-11T06:27:41.421Z,12.90
2018-06-11T06:30:09.684Z,14.10
2018-06-11T06:32:38.022Z,13.83
2018-06-11T06:35:06.346Z,13.60
2018-06-11T06:37:34.795Z,12.97
2018-06-11T06:40:03.192Z,14.53
2018-06-11T06:42:31.472Z,13.83
2018-06-11T06:44:59.761Z,13.77
2018-06-11T06:47:28.071Z,14.73
2018-06-11T06:49:56.348Z,12.13
2018-06-11T06:52:24.641Z,12.70
2018-06-11T06:54:52.966Z,13.40
2018-06-11T06:57:21.217Z,12.97
2018-06-11T06:59:49.556Z,12.77
2018-06-11T07:02:17.834Z,12.53
2018-06-11T07:04:46.124Z,13.13
2018-06-11T07:07:14.187Z,12.50
2018-06-11T07:09:43.642Z,11.33
2018-06-11T07:12:11.941Z,12.57
2018-06-11T07:14:44.662Z,11.87
2018-06-11T07:17:13.040Z,12.20
2018-06-11T07:19:41.620Z,11.03
2018-06-11T07:22:10.058Z,11.43
2018-06-11T07:24:39.159Z,11.17
2018-06-11T07:27:09.478Z,11.13
2018-06-11T07:29:37.974Z,10.17
2018-06-11T07:32:06.277Z,9.60
2018-06-11T07:34:34.604Z,10.80
2018-06-11T07:37:02.935Z,11.50
2018-06-11T07:39:32.097Z,11.87
2018-06-11T07:42:00.439Z,11.20
2018-06-11T07:44:30.555Z,10.90
2018-06-11T07:46:59.909Z,10.97
2018-06-11T07:49:28.103Z,10.10
2018-06-11T07:51:56.960Z,11.60
2018-06-11T07:54:27.296Z,11.87
2018-06-11T07:56:55.462Z,11.40
2018-06-11T07:59:25.104Z,11.20
2018-06-11T08:01:53.236Z,11.03
2018-06-11T08:04:21.649Z,11.00
2018-06-11T08:06:50.092Z,11.03
2018-06-11T08:09:18.484Z,9.57
2018-06-11T08:11:47.073Z,11.53
2018-06-11T08:14:15.837Z,10.90
2018-06-11T08:16:45.545Z,11.00
2018-06-11T08:19:14.836Z,10.13
2018-06-11T08:21:42.830Z,9.83
2018-06-11T08:24:11.115Z,9.47
2018-06-11T08:26:39.685Z,9.60
2018-06-11T08:29:10.024Z,9.90
2018-06-11T08:31:38.364Z,9.73
2018-06-11T08:34:06.912Z,9.63
2018-06-11T08:36:35.016Z,9.23
2018-06-11T08:39:03.609Z,10.90
2018-06-11T08:41:34.872Z,9.77
2018-06-11T08:44:03.364Z,10.57
2018-06-11T08:46:31.674Z,11.67
2018-06-11T08:49:00.012Z,9.13
2018-06-11T08:51:28.353Z,9.70
2018-06-11T08:53:56.676Z,9.73
2018-06-11T08:56:25.628Z,9.60
2018-06-11T08:58:53.933Z,10.17
2018-06-11T09:01:22.206Z,10.80
2018-06-11T09:03:50.497Z,9.87
2018-06-11T09:06:18.812Z,10.97
2018-06-11T09:08:46.821Z,10.33
2018-06-11T09:11:15.125Z,10.40
2018-06-11T09:13:43.451Z,10.57
2018-06-11T09:16:11.762Z,10.17
2018-06-11T09:18:40.089Z,10.73
2018-06-11T09:21:08.436Z,10.03
2018-06-11T09:23:36.748Z,10.83
2018-06-11T09:26:05.139Z,10.03
2018-06-11T09:28:33.418Z,10.37
2018-06-11T09:31:01.842Z,9.40
2018-06-11T09:33:30.113Z,9.47
2018-06-11T09:35:58.416Z,8.73
2018-06-11T09:38:26.720Z,8.27
2018-06-11T09:40:54.980Z,9.50
2018-06-11T09:43:23.027Z,8.53
2018-06-11T09:45:51.316Z,7.90
2018-06-11T09:48:19.598Z,8.03
2018-06-11T09:50:47.601Z,8.23
2018-06-11T09:53:15.948Z,8.07
2018-06-11T09:55:44.017Z,7.93
2018-06-11T09:58:12.252Z,7.83
2018-06-11T10:00:40.601Z,8.67
2018-06-11T10:03:08.900Z,8.47
2018-06-11T10:05:37.301Z,8.27
2018-06-11T10:08:05.780Z,7.87
2018-06-11T10:10:34.074Z,8.37
2018-06-11T10:13:02.401Z,7.87
2018-06-11T10:15:30.669Z,6.63
2018-06-11T10:17:58.945Z,6.83
2018-06-11T10:20:27.225Z,7.73
2018-06-11T10:22:55.524Z,7.10
2018-06-11T10:25:23.783Z,6.50
2018-06-11T10:27:52.056Z,6.60
2018-06-11T10:30:20.337Z,7.00
2018-06-11T10:32:48.663Z,6.40
2018-06-11T10:35:17.007Z,6.23
2018-06-11T10:37:45.372Z,6.90
2018-06-11T10:40:13.616Z,5.90
2018-06-11T10:42:41.919Z,5.83
2018-06-11T10:45:10.250Z,6.63
2018-06-11T10:47:38.515Z,5.87
2018-06-11T10:50:06.841Z,7.20
2018-06-11T10:52:35.083Z,6.60
2018-06-11T10:55:03.416Z,5.63
2018-06-11T10:57:31.812Z,5.77
2018-06-11T11:00:00.129Z,5.13
2018-06-11T11:02:28.148Z,5.63
2018-06-11T11:04:56.463Z,5.57
2018-06-11T11:07:24.740Z,5.43
2018-06-11T11:09:53.042Z,5.63
2018-06-11T11:12:21.351Z,6.00
2018-06-11T11:14:49.613Z,5.67
2018-06-11T11:17:17.903Z,5.10
2018-06-11T11:19:46.203Z,5.77
2018-06-11T11:22:14.480Z,5.67
2018-06-11T11:24:42.839Z,5.67
2018-06-11T11:27:11.152Z,5.47
2018-06-11T11:29:39.587Z,5.10
2018-06-11T11:32:07.892Z,5.27
2018-06-11T11:34:36.180Z,5.23
2018-06-11T11:37:04.478Z,5.93
2018-06-11T11:39:32.836Z,5.57
2018-06-11T11:42:01.476Z,5.50
2018-06-11T11:44:29.793Z,5.00
2018-06-11T11:46:59.804Z,5.70
2018-06-11T11:49:28.273Z,6.43
2018-06-11T11:51:56.661Z,6.47
2018-06-11T11:54:24.948Z,6.03
2018-06-11T11:56:53.315Z,6.23
2018-06-11T11:59:22.095Z,6.53
2018-06-11T12:01:50.403Z,6.53
2018-06-11T12:04:18.716Z,6.60
2018-06-11T12:06:47.000Z,5.87
2018-06-11T12:09:15.576Z,5.30
2018-06-11T12:11:45.149Z,6.40
2018-06-11T12:14:13.505Z,7.00
2018-06-11T12:16:41.829Z,6.00
2018-06-11T12:19:09.850Z,5.90
2018-06-11T12:21:38.180Z,6.17
2018-06-11T12:24:06.439Z,6.23
2018-06-11T12:26:34.496Z,6.33
2018-06-11T12:29:02.801Z,6.13
2018-06-11T12:31:30.820Z,5.97
2018-06-11T12:33:59.109Z,6.10
2018-06-11T12:36:27.462Z,5.27
2018-06-11T12:38:55.741Z,5.30
2018-06-11T12:41:24.035Z,5.07
2018-06-11T12:43:52.362Z,5.37
2018-06-11T12:46:20.724Z,4.90
2018-06-11T12:48:49.005Z,4.97
2018-06-11T12:51:17.000Z,5.23
2018-06-11T12:53:45.292Z,4.63
2018-06-11T12:56:13.578Z,3.90
2018-06-11T12:58:41.843Z,4.10
2018-06-11T13:01:10.130Z,4.77
2018-06-11T13:03:38.408Z,4.67
2018-06-11T13:06:06.769Z,3.60
2018-06-11T13:08:35.098Z,3.20
2018-06-11T13:11:03.412Z,3.80
2018-06-11T13:13:31.764Z,3.87
2018-06-11T13:15:59.980Z,3.57
2018-06-11T13:18:28.264Z,3.87
2018-06-11T13:20:56.593Z,3.63
2018-06-11T13:23:24.624Z,3.97
2018-06-11T13:25:52.938Z,4.30
2018-06-11T13:28:20.990Z,4.40
2018-06-11T13:30:49.280Z,3.80
2018-06-11T13:33:17.661Z,4.03
2018-06-11T13:35:45.679Z,3.50
2018-06-11T13:38:14.047Z,3.77
2018-06-11T13:40:42.341Z,4.07
2018-06-11T13:43:10.703Z,4.00
2018-06-11T13:45:39.043Z,3.47
2018-06-11T13:48:07.888Z,3.50
2018-06-11T13:50:36.165Z,3.30
2018-06-11T13:53:04.480Z,3.30
2018-06-11T13:55:32.868Z,3.40
2018-06-11T13:58:01.236Z,2.93
2018-06-11T14:00:30.412Z,3.23
2018-06-11T14:02:58.722Z,3.00
2018-06-11T14:05:27.019Z,3.37
2018-06-11T14:07:55.320Z,3.60
2018-06-11T14:10:23.624Z,3.37
2018-06-11T14:12:51.952Z,3.63
2018-06-11T14:15:20.236Z,3.17
2018-06-11T14:17:48.568Z,3.73
2018-06-11T14:20:16.844Z,3.70
2018-06-11T14:22:45.127Z,3.23
2018-06-11T14:25:13.453Z,3.43
2018-06-11T14:27:41.808Z,3.17
2018-06-11T14:30:12.263Z,2.90
2018-06-11T14:32:40.600Z,3.50
2018-06-11T14:35:08.890Z,2.93
2018-06-11T14:37:37.144Z,2.90
2018-06-11T14:40:05.463Z,3.17
2018-06-11T14:42:33.752Z,3.33
2018-06-11T14:45:02.025Z,3.30
2018-06-11T14:47:30.301Z,2.77
2018-06-11T14:49:58.603Z,3.20
2018-06-11T14:52:26.870Z,3.40
2018-06-11T14:54:55.139Z,2.70
2018-06-11T14:57:23.543Z,3.27
2018-06-11T14:59:52.356Z,3.00
2018-06-11T15:02:20.765Z,3.07
2018-06-11T15:04:49.018Z,2.83
2018-06-11T15:07:17.333Z,2.63
2018-06-11T15:09:45.613Z,2.97
2018-06-11T15:12:13.915Z,3.20
2018-06-11T15:14:42.232Z,3.00
2018-06-11T15:17:10.564Z,2.70
2018-06-11T15:19:38.863Z,3.00
2018-06-11T15:22:07.189Z,2.90
2018-06-11T15:24:35.477Z,2.87
2018-06-11T15:27:03.843Z,3.33
2018-06-11T15:29:33.308Z,2.90
2018-06-11T15:32:01.550Z,2.83
2018-06-11T15:34:29.927Z,2.93
2018-06-11T15:36:58.223Z,2.90
2018-06-11T15:39:26.569Z,3.40
2018-06-11T15:41:54.849Z,3.30
2018-06-11T15:44:23.144Z,3.20
2018-06-11T15:46:51.435Z,3.10
2018-06-11T15:49:19.694Z,3.43
2018-06-11T15:51:47.980Z,3.30
2018-06-11T15:54:16.278Z,3.90
2018-06-11T15:56:44.635Z,3.90
2018-06-11T15:59:12.931Z,3.30
2018-06-11T16:01:41.215Z,3.27
2018-06-11T16:04:09.548Z,3.57
2018-06-11T16:06:37.827Z,3.70
2018-06-11T16:09:07.429Z,3.73
2018-06-11T16:11:35.681Z,4.00
2018-06-11T16:14:04.030Z,3.50
2018-06-11T16:16:32.380Z,3.40
2018-06-11T16:19:00.671Z,4.03
2018-06-11T16:21:29.001Z,4.43
2018-06-11T16:23:57.227Z,4.07
2018-06-11T16:26:25.515Z,4.60
2018-06-11T16:28:53.857Z,5.00
2018-06-11T16:31:22.133Z,4.60
2018-06-11T16:33:50.427Z,4.53
2018-06-11T16:36:18.707Z,4.37
2018-06-11T16:38:47.011Z,4.70
2018-06-11T16:41:15.068Z,4.63
2018-06-11T16:43:43.368Z,4.17
2018-06-11T16:46:12.159Z,4.40
2018-06-11T16:48:40.460Z,3.70
2018-06-11T16:51:08.756Z,4.00
2018-06-11T16:53:37.013Z,4.03
2018-06-11T16:56:05.429Z,3.60
2018-06-11T16:58:33.729Z,3.17
2018-06-11T17:01:02.687Z,3.63
2018-06-11T17:03:30.986Z,3.20
2018-06-11T17:05:59.312Z,4.20
2018-06-11T17:08:27.660Z,3.60
2018-06-11T17:10:55.663Z,3.80
2018-06-11T17:13:23.958Z,3.67
2018-06-11T17:15:52.268Z,2.87
2018-06-11T17:18:20.530Z,2.80
2018-06-11T17:20:48.840Z,3.10
2018-06-11T17:23:16.863Z,3.10
2018-06-11T17:25:45.116Z,3.20
2018-06-11T17:28:13.427Z,2.97
2018-06-11T17:30:41.668Z,3.23
2018-06-11T17:33:10.007Z,2.60
2018-06-11T17:35:38.288Z,3.03
2018-06-11T17:38:06.955Z,2.53
2018-06-11T17:40:35.271Z,2.30
2018-06-11T17:43:03.599Z,2.60
2018-06-11T17:45:31.913Z,2.57
2018-06-11T17:47:59.887Z,2.60
2018-06-11T17:50:28.156Z,2.37
2018-06-11T17:52:56.151Z,2.53
2018-06-11T17:55:24.568Z,2.73
2018-06-11T17:57:52.896Z,2.63
2018-06-11T18:00:21.274Z,2.60
2018-06-11T18:02:49.546Z,3.00
2018-06-11T18:05:17.819Z,2.97
2018-06-11T18:07:46.065Z,3.00
2018-06-11T18:10:14.399Z,2.63
2018-06-11T18:12:42.685Z,2.80
2018-06-11T18:15:10.966Z,2.60
2018-06-11T18:17:39.239Z,2.83
2018-06-11T18:20:07.528Z,2.97
2018-06-11T18:22:35.803Z,2.57
2018-06-11T18:25:04.115Z,2.80
2018-06-11T18:27:32.375Z,2.60
2018-06-11T18:30:00.665Z,2.80
2018-06-11T18:32:28.967Z,2.70
2018-06-11T18:34:57.297Z,2.93
2018-06-11T18:37:25.620Z,3.20
2018-06-11T18:39:53.937Z,2.70
2018-06-11T18:42:22.245Z,3.23
2018-06-11T18:44:50.565Z,3.20
2018-06-11T18:47:18.832Z,2.90
2018-06-11T18:49:47.172Z,3.13
2018-06-11T18:52:15.483Z,3.40
2018-06-11T18:54:43.495Z,2.77
2018-06-11T18:57:11.789Z,3.10
2018-06-11T18:59:40.282Z,2.80
2018-06-11T19:02:08.582Z,2.77
2018-06-11T19:04:36.622Z,2.80
2018-06-11T19:07:04.947Z,3.27
2018-06-11T19:09:33.253Z,3.00
2018-06-11T19:12:01.496Z,3.20
2018-06-11T19:14:29.824Z,3.33
2018-06-11T19:16:58.110Z,3.23
2018-06-11T19:19:26.378Z,2.80
2018-06-11T19:21:54.751Z,3.00
2018-06-11T19:24:23.097Z,3.10
2018-06-11T19:26:51.440Z,3.13
2018-06-11T19:29:20.100Z,3.40
2018-06-11T19:31:48.404Z,3.30
2018-06-11T19:34:16.464Z,3.30
2018-06-11T19:36:44.741Z,3.27
2018-06-11T19:39:13.058Z,3.50
2018-06-11T19:41:41.306Z,2.90
2018-06-11T19:44:09.573Z,2.90
2018-06-11T19:46:37.840Z,3.13
2018-06-11T19:49:06.102Z,3.77
2018-06-11T19:51:34.433Z,3.00
2018-06-11T19:54:02.682Z,3.10
2018-06-11T19:56:31.037Z,3.03
2018-06-11T19:58:59.317Z,3.50
2018-06-11T20:01:27.614Z,3.33
2018-06-11T20:03:55.958Z,3.40
2018-06-11T20:06:24.225Z,3.53
2018-06-11T20:08:52.513Z,3.13
2018-06-11T20:11:20.912Z,3.37
2018-06-11T20:13:49.185Z,3.30
2018-06-11T20:16:17.468Z,3.23
2018-06-11T20:18:46.073Z,3.43
2018-06-11T20:21:14.267Z,3.23
2018-06-11T20:23:43.784Z,3.20
2018-06-11T20:26:12.052Z,3.47
2018-06-11T20:28:40.331Z,3.20
2018-06-11T20:31:08.655Z,3.23
2018-06-11T20:33:36.978Z,3.30
2018-06-11T20:36:05.313Z,3.30
2018-06-11T20:38:33.621Z,3.07
2018-06-11T20:41:01.639Z,3.57
2018-06-11T20:43:36.220Z,3.43
2018-06-11T20:46:04.645Z,3.73
2018-06-11T20:48:32.933Z,3.30
2018-06-11T20:51:01.235Z,3.63
2018-06-11T20:53:29.500Z,3.00
2018-06-11T20:55:57.754Z,3.57
2018-06-11T20:58:26.014Z,3.57
2018-06-11T21:00:54.315Z,3.57
2018-06-11T21:03:22.694Z,3.90
2018-06-11T21:05:50.908Z,3.20
2018-06-11T21:08:19.170Z,4.03
2018-06-11T21:10:47.488Z,3.20
2018-06-11T21:13:15.760Z,3.90
2018-06-11T21:15:44.024Z,3.80
2018-06-11T21:18:12.289Z,3.57
2018-06-11T21:20:40.584Z,4.03
2018-06-11T21:23:09.038Z,3.60
2018-06-11T21:25:37.087Z,3.33
2018-06-11T21:28:05.400Z,3.60
2018-06-11T21:30:33.744Z,3.73
2018-06-11T21:33:02.054Z,3.87
2018-06-11T21:35:31.200Z,3.43
2018-06-11T21:37:59.528Z,3.93
2018-06-11T21:40:27.558Z,3.53
2018-06-11T21:42:55.816Z,4.40
2018-06-11T21:45:24.086Z,3.70
2018-06-11T21:47:52.507Z,4.20
2018-06-11T21:50:20.828Z,3.60
2018-06-11T21:52:49.137Z,3.73
2018-06-11T21:55:17.436Z,4.37
2018-06-11T21:57:45.734Z,3.70
2018-06-11T22:00:14.070Z,3.87
2018-06-11T22:02:42.396Z,3.43
2018-06-11T22:05:10.793Z,3.50
2018-06-11T22:07:39.076Z,4.13
2018-06-11T22:10:07.370Z,3.73
2018-06-11T22:12:35.658Z,3.87
2018-06-11T22:15:04.431Z,4.23
2018-06-11T22:17:32.736Z,3.67
2018-06-11T22:20:01.021Z,3.70
2018-06-11T22:22:29.305Z,3.77
2018-06-11T22:24:57.311Z,3.90
2018-06-11T22:27:25.595Z,4.00
2018-06-11T22:29:54.221Z,3.60
2018-06-11T22:32:22.536Z,3.77
2018-06-11T22:34:50.881Z,3.70
2018-06-11T22:37:19.148Z,3.90
2018-06-11T22:39:47.432Z,3.33
2018-06-11T22:42:15.700Z,3.43
2018-06-11T22:44:43.973Z,3.20
2018-06-11T22:47:12.261Z,4.00
2018-06-11T22:49:40.252Z,3.80
2018-06-11T22:52:08.535Z,3.67
2018-06-11T22:54:36.828Z,3.57
2018-06-11T22:57:05.076Z,3.87
2018-06-11T22:59:34.175Z,3.47
2018-06-11T23:02:02.505Z,3.33
2018-06-11T23:04:30.771Z,3.80
2018-06-11T23:06:59.072Z,4.03
2018-06-11T23:09:27.390Z,3.63
2018-06-11T23:11:55.680Z,3.60
2018-06-11T23:14:23.981Z,3.60
2018-06-11T23:16:52.278Z,3.53
2018-06-11T23:19:20.528Z,4.07
2018-06-11T23:21:48.885Z,3.57
2018-06-11T23:24:17.190Z,3.23
2018-06-11T23:26:45.480Z,3.30
2018-06-11T23:29:13.802Z,3.37
2018-06-11T23:31:42.097Z,3.43
2018-06-11T23:34:10.339Z,3.10
2018-06-11T23:36:38.703Z,3.27
2018-06-11T23:39:07.617Z,3.57
2018-06-11T23:41:35.621Z,3.27
2018-06-11T23:44:03.889Z,3.43
2018-06-11T23:46:32.149Z,3.90
2018-06-11T23:49:00.488Z,3.93
2018-06-11T23:51:28.769Z,3.77
2018-06-11T23:53:57.047Z,4.00
2018-06-11T23:56:25.376Z,3.57
2018-06-11T23:58:53.695Z,4.00
